Time;durP1;ratioP1;P1;durP2;ratioP2;P2;SDS_P1;SDS_P2;PMS_P1;PMS_P2;Temp;Humidity;BMP_temperature;BMP_pressure;BME280_temperature;BME280_humidity;BME280_pressure;Samples;Min_cycle;Max_cycle;Signal;HPM_P1;HPM_P2
2021/06/08 00:00:49;;;;;;;24.42;16.10;;;;;;;12.57;75.82;101121.47;5102246;28;20479;-70
2021/06/08 00:03:14;;;;;;;25.85;13.63;;;;;;;12.61;75.82;101125.81;5103812;28;20024;-71
2021/06/08 00:05:39;;;;;;;32.83;14.63;;;;;;;12.60;75.95;101129.25;5102172;28;20029;-71
2021/06/08 00:08:05;;;;;;;23.27;14.15;;;;;;;12.58;75.78;101123.22;5102207;28;20036;-70
2021/06/08 00:10:31;;;;;;;20.13;13.77;;;;;;;12.61;75.75;101120.59;5102195;28;20019;-70
2021/06/08 00:12:56;;;;;;;24.55;14.23;;;;;;;12.58;76.04;101118.00;5103206;28;20468;-72
2021/06/08 00:15:22;;;;;;;23.88;14.60;;;;;;;12.55;76.17;101118.03;5103421;28;20024;-71
2021/06/08 00:17:47;;;;;;;25.05;14.23;;;;;;;12.63;76.39;101125.81;5103364;28;20052;-70
2021/06/08 00:20:14;;;;;;;21.67;12.98;;;;;;;12.56;76.22;101109.34;5103275;28;20107;-70
2021/06/08 00:22:39;;;;;;;31.27;13.90;;;;;;;12.55;76.17;101111.94;5103572;28;20021;-70
2021/06/08 00:25:05;;;;;;;23.48;13.60;;;;;;;12.60;76.42;101128.41;5101936;28;20031;-70
2021/06/08 00:27:31;;;;;;;28.35;13.85;;;;;;;12.50;76.75;101117.19;5103069;28;20024;-71
2021/06/08 00:29:56;;;;;;;28.27;13.38;;;;;;;12.52;76.71;101118.88;5101952;28;20069;-71
2021/06/08 00:32:22;;;;;;;26.85;14.55;;;;;;;12.53;76.99;101119.75;5103718;28;20394;-71
2021/06/08 00:34:47;;;;;;;27.90;14.20;;;;;;;12.51;76.72;101111.97;5103444;28;20030;-71
2021/06/08 00:37:12;;;;;;;30.73;15.05;;;;;;;12.55;76.59;101117.16;5104247;28;20494;-72
2021/06/08 00:39:38;;;;;;;25.88;13.77;;;;;;;12.49;76.69;101110.25;5107631;28;20028;-72
2021/06/08 00:42:04;;;;;;;24.02;13.45;;;;;;;12.45;76.66;101105.91;5107004;28;20049;-73
2021/06/08 00:44:30;;;;;;;28.05;14.30;;;;;;;12.51;76.80;101113.69;5107502;28;20084;-72
2021/06/08 00:46:56;;;;;;;28.13;13.80;;;;;;;12.51;76.83;101114.56;5107457;28;20080;-71
2021/06/08 00:49:22;;;;;;;26.67;13.98;;;;;;;12.54;76.90;101110.22;5107080;28;20023;-71
2021/06/08 00:51:47;;;;;;;31.55;14.88;;;;;;;12.56;76.74;101113.66;5107138;28;20080;-70
2021/06/08 00:54:13;;;;;;;21.63;13.30;;;;;;;12.51;76.92;101106.75;5105933;28;20024;-71
2021/06/08 00:56:42;;;;;;;25.10;14.05;;;;;;;12.52;76.81;101102.41;5107230;28;20031;-70
2021/06/08 00:59:08;;;;;;;22.52;12.60;;;;;;;12.53;76.64;101096.31;5106947;28;20024;-70
2021/06/08 01:01:34;;;;;;;20.52;13.38;;;;;;;12.54;76.58;101110.22;5105737;28;20058;-71
2021/06/08 01:04:10;;;;;;;24.25;13.00;;;;;;;12.60;76.46;101107.59;5107105;28;20555;-70
2021/06/08 01:06:37;;;;;;;23.50;12.95;;;;;;;12.61;76.39;101109.31;5106924;28;20053;-70
2021/06/08 01:09:05;;;;;;;25.08;14.00;;;;;;;12.69;76.21;101117.06;5106721;28;20020;-70
2021/06/08 01:11:30;;;;;;;23.35;13.10;;;;;;;12.63;76.22;101113.66;5106830;28;20024;-70
2021/06/08 01:13:56;;;;;;;20.88;12.38;;;;;;;12.63;76.10;101113.66;5106442;28;20046;-71
2021/06/08 01:16:23;;;;;;;38.17;13.18;;;;;;;12.73;76.33;101122.25;5107101;28;20035;-71
2021/06/08 01:18:49;;;;;;;23.55;11.77;;;;;;;12.80;76.18;101117.88;5104945;28;20044;-73
2021/06/08 01:21:15;;;;;;;24.10;11.52;;;;;;;12.86;76.19;101117.00;5106544;28;20036;-71
2021/06/08 01:23:42;;;;;;;16.02;10.55;;;;;;;12.94;75.96;101122.16;5106603;28;20023;-71
2021/06/08 01:26:09;;;;;;;18.45;12.35;;;;;;;12.95;75.86;101116.06;5106717;28;20089;-71
2021/06/08 01:28:36;;;;;;;24.08;12.45;;;;;;;13.01;75.70;101110.78;5106213;28;20081;-71
2021/06/08 01:31:08;;;;;;;19.65;10.18;;;;;;;13.05;75.58;101101.22;5106370;28;20062;-71
2021/06/08 01:33:39;;;;;;;16.90;10.68;;;;;;;13.12;75.16;101108.97;5105151;28;20027;-71
2021/06/08 01:36:07;;;;;;;14.10;9.63;;;;;;;13.11;74.91;101106.38;5106403;28;20038;-71
2021/06/08 01:38:34;;;;;;;17.23;9.77;;;;;;;13.12;74.89;101111.59;5106380;28;20071;-71
2021/06/08 01:41:00;;;;;;;19.40;10.70;;;;;;;13.10;74.68;101108.09;5104872;28;20519;-71
2021/06/08 01:43:26;;;;;;;18.50;10.00;;;;;;;13.10;74.63;101108.09;5105943;28;20057;-72
2021/06/08 01:45:51;;;;;;;17.92;10.48;;;;;;;13.20;74.43;101121.06;5104858;28;20020;-71
2021/06/08 01:48:17;;;;;;;19.20;10.45;;;;;;;13.16;74.46;101115.03;5105840;28;20024;-72
2021/06/08 01:50:48;;;;;;;15.38;10.10;;;;;;;13.23;74.47;101118.44;5104635;28;20022;-72
2021/06/08 01:53:23;;;;;;;16.75;10.18;;;;;;;13.21;74.26;101121.06;5106282;28;20100;-70
2021/06/08 01:55:52;;;;;;;14.35;8.93;;;;;;;13.25;74.32;101120.16;5106077;28;20024;-71
2021/06/08 01:58:41;;;;;;;16.35;9.98;;;;;;;13.29;74.11;101121.00;5104375;28;20084;-71
2021/06/08 02:01:21;;;;;;;16.15;9.18;;;;;;;13.26;74.04;101115.81;5105639;28;20016;-71
2021/06/08 02:03:57;;;;;;;17.02;9.77;;;;;;;13.16;73.90;101103.72;5105903;28;20028;-71
2021/06/08 02:06:46;;;;;;;14.23;9.60;;;;;;;13.18;73.90;101107.19;5105896;28;20050;-71
2021/06/08 02:09:21;;;;;;;11.15;8.50;;;;;;;13.22;73.81;101116.72;5106047;28;20027;-72
2021/06/08 02:11:56;;;;;;;16.88;8.50;;;;;;;13.18;73.72;101099.38;5104346;28;20448;-72
2021/06/08 02:14:33;;;;;;;14.55;8.90;;;;;;;13.26;73.55;101113.19;5105660;28;20101;-72
2021/06/08 02:17:07;;;;;;;17.05;9.63;;;;;;;13.22;73.48;101112.38;5104367;28;20069;-71
2021/06/08 02:19:36;;;;;;;17.30;8.35;;;;;;;13.24;73.32;101109.75;5105560;28;20100;-71
2021/06/08 02:22:05;;;;;;;17.23;8.95;;;;;;;13.28;73.23;101114.06;5105661;28;20042;-71
2021/06/08 02:24:31;;;;;;;13.20;8.93;;;;;;;13.28;73.08;101119.28;5104267;28;20034;-72
2021/06/08 02:27:02;;;;;;;14.27;9.00;;;;;;;13.24;72.86;101105.38;5105261;28;20020;-71
2021/06/08 02:29:29;;;;;;;14.82;9.02;;;;;;;13.25;72.93;101114.09;5105366;28;20028;-71
2021/06/08 02:31:56;;;;;;;13.77;8.77;;;;;;;13.22;72.83;101112.38;5105083;28;20020;-70
2021/06/08 02:34:21;;;;;;;17.60;8.25;;;;;;;13.23;72.75;101110.63;5105613;28;20027;-70
2021/06/08 02:36:48;;;;;;;15.48;8.77;;;;;;;13.20;72.62;101110.66;5105395;28;20024;-70
2021/06/08 02:39:15;;;;;;;15.07;8.20;;;;;;;13.21;72.45;101115.84;5105223;28;20055;-71
2021/06/08 02:41:42;;;;;;;15.70;7.97;;;;;;;13.22;72.36;101119.31;5104909;28;20020;-71
2021/06/08 02:44:09;;;;;;;14.68;7.75;;;;;;;13.16;72.27;101119.38;5105043;28;20031;-71
2021/06/08 02:46:36;;;;;;;16.20;8.23;;;;;;;13.13;72.45;101120.28;5105253;28;20024;-70
2021/06/08 02:49:02;;;;;;;11.07;7.25;;;;;;;13.19;72.38;101125.44;5104999;28;20083;-71
2021/06/08 02:51:29;;;;;;;11.27;7.70;;;;;;;13.23;72.41;101121.03;5105012;28;20040;-70
2021/06/08 02:53:57;;;;;;;14.65;7.72;;;;;;;13.29;72.09;101123.59;5104985;28;20024;-71
2021/06/08 02:56:22;;;;;;;15.98;7.97;;;;;;;13.25;71.85;101114.97;5105101;28;20020;-71
2021/06/08 02:58:49;;;;;;;14.93;7.90;;;;;;;13.21;72.15;101115.84;5104588;28;20499;-71
2021/06/08 03:01:16;;;;;;;12.80;7.72;;;;;;;13.23;72.01;101111.50;5104215;28;20028;-71
2021/06/08 03:03:44;;;;;;;13.55;8.13;;;;;;;13.23;72.07;101110.63;5104750;28;20085;-71
2021/06/08 03:06:23;;;;;;;15.20;8.05;;;;;;;13.31;71.88;101114.03;5104758;28;20069;-70
2021/06/08 03:09:14;;;;;;;12.45;7.05;;;;;;;13.22;71.88;101106.28;5104691;28;20023;-73
2021/06/08 03:11:49;;;;;;;15.13;7.88;;;;;;;13.34;71.69;101124.44;5104580;28;20027;-71
2021/06/08 03:14:16;;;;;;;14.20;8.05;;;;;;;13.36;71.60;101122.69;5104496;28;20355;-70
2021/06/08 03:16:50;;;;;;;11.38;6.60;;;;;;;13.38;71.67;101126.16;5104796;28;20020;-71
2021/06/08 03:19:19;;;;;;;11.40;7.80;;;;;;;13.42;71.49;101131.34;5104444;28;20523;-70
2021/06/08 03:21:49;;;;;;;13.65;7.90;;;;;;;13.44;71.17;101127.84;5104323;28;20028;-70
2021/06/08 03:24:17;;;;;;;14.25;7.65;;;;;;;13.48;71.23;101126.91;5104370;28;20031;-71
2021/06/08 03:26:45;;;;;;;13.25;8.00;;;;;;;13.50;71.11;101129.50;5104414;28;20024;-71
2021/06/08 03:29:14;;;;;;;13.48;8.07;;;;;;;13.50;71.24;101127.81;5104281;28;20055;-71
2021/06/08 03:31:42;;;;;;;13.38;7.95;;;;;;;13.51;71.11;101123.47;5102784;28;20046;-72
2021/06/08 03:34:14;;;;;;;9.30;7.28;;;;;;;13.57;71.03;101132.97;5102940;28;20020;-71
2021/06/08 03:36:42;;;;;;;12.18;7.05;;;;;;;13.59;70.93;101119.06;5104276;28;20054;-72
2021/06/08 03:39:07;;;;;;;10.35;7.20;;;;;;;13.64;70.70;101121.63;5104225;28;20024;-72
2021/06/08 03:41:33;;;;;;;13.40;7.95;;;;;;;13.70;70.29;101131.09;5103735;28;20016;-73
2021/06/08 03:44:00;;;;;;;11.63;7.43;;;;;;;13.65;70.25;101131.16;5103654;28;20024;-73
2021/06/08 03:46:25;;;;;;;15.38;7.60;;;;;;;13.63;70.07;101125.06;5103712;28;20028;-73
2021/06/08 03:48:52;;;;;;;12.73;6.57;;;;;;;13.63;69.93;101123.34;5103675;28;20089;-73
2021/06/08 03:51:20;;;;;;;11.32;6.63;;;;;;;13.61;69.65;101127.69;5103733;28;20043;-72
2021/06/08 03:53:45;;;;;;;10.98;6.50;;;;;;;13.56;69.61;101121.66;5102366;28;20024;-72
2021/06/08 03:56:12;;;;;;;12.07;6.25;;;;;;;13.61;69.69;101129.47;5104026;28;20027;-72
2021/06/08 03:58:40;;;;;;;18.10;7.80;;;;;;;13.68;69.49;101136.34;5103461;28;20040;-72
2021/06/08 04:01:05;;;;;;;14.80;7.53;;;;;;;13.60;69.57;101104.25;5103406;28;20020;-72
2021/06/08 04:03:33;;;;;;;14.13;7.55;;;;;;;13.82;69.32;101133.59;5103561;28;20043;-72
2021/06/08 04:06:01;;;;;;;10.38;7.35;;;;;;;13.85;69.27;101137.94;5103443;28;20050;-72
2021/06/08 04:08:27;;;;;;;9.63;6.80;;;;;;;13.85;68.95;101120.50;5103427;28;20080;-71
2021/06/08 04:10:54;;;;;;;9.90;6.72;;;;;;;13.92;68.96;101130.88;5103098;28;20008;-71
2021/06/08 04:13:19;;;;;;;12.52;7.57;;;;;;;13.95;68.75;101120.41;5105852;28;20043;-68
2021/06/08 04:15:47;;;;;;;13.70;7.20;;;;;;;13.91;68.40;101116.97;5107479;28;20046;-71
2021/06/08 04:18:12;;;;;;;47.10;27.92;;;;;;;13.92;68.81;101129.16;5107605;28;20059;-71
2021/06/08 04:20:38;;;;;;;19.73;11.43;;;;;;;13.92;68.62;101123.03;5107592;28;20035;-71
2021/06/08 04:23:04;;;;;;;15.73;10.40;;;;;;;13.93;68.88;101123.03;5106211;28;20016;-72
2021/06/08 04:25:29;;;;;;;12.85;8.13;;;;;;;13.97;68.50;101123.88;5108091;28;20039;-66
2021/06/08 04:27:55;;;;;;;11.98;7.30;;;;;;;13.90;68.58;101120.47;5107299;28;20480;-67
2021/06/08 04:30:22;;;;;;;12.35;7.03;;;;;;;13.91;68.40;101116.09;5107100;28;20071;-73
2021/06/08 04:32:48;;;;;;;12.18;7.22;;;;;;;13.88;67.71;101112.66;5107254;28;20032;-73
2021/06/08 04:35:15;;;;;;;14.45;6.75;;;;;;;13.83;67.57;101109.25;5107036;28;20293;-73
2021/06/08 04:37:41;;;;;;;11.50;6.25;;;;;;;13.86;67.47;101117.03;5106712;28;20024;-73
2021/06/08 04:40:09;;;;;;;8.88;5.63;;;;;;;13.84;67.30;101099.66;5107312;28;20031;-73
2021/06/08 04:42:48;;;;;;;12.95;6.57;;;;;;;13.91;67.46;101114.38;5107286;28;20541;-73
2021/06/08 04:45:15;;;;;;;11.73;6.82;;;;;;;13.92;67.71;101115.22;5107413;28;20084;-72
2021/06/08 04:47:41;;;;;;;10.77;6.85;;;;;;;13.98;67.56;101121.25;5107997;28;20062;-73
2021/06/08 04:50:09;;;;;;;11.05;6.35;;;;;;;13.95;67.34;101121.28;5106267;28;20020;-73
2021/06/08 04:52:34;;;;;;;10.13;6.53;;;;;;;13.94;66.99;101121.28;5107303;28;20469;-76
2021/06/08 04:55:01;;;;;;;11.63;6.00;;;;;;;13.98;67.12;101133.41;5106192;28;20020;-76
2021/06/08 04:57:27;;;;;;;13.18;7.10;;;;;;;13.94;67.22;101126.50;5106952;28;20077;-76
2021/06/08 05:00:12;;;;;;;9.52;6.13;;;;;;;13.98;67.50;101141.25;5107165;28;20051;-75
2021/06/08 05:03:06;;;;;;;13.10;6.88;;;;;;;14.04;67.21;101135.97;5105724;28;20023;-75
2021/06/08 05:05:33;;;;;;;8.82;5.90;;;;;;;14.02;66.88;101135.13;5106981;28;20046;-75
2021/06/08 05:08:08;;;;;;;12.48;5.68;;;;;;;14.08;66.69;101127.22;5106684;28;20020;-73
2021/06/08 05:10:41;;;;;;;12.68;5.65;;;;;;;14.08;66.73;101137.69;5106950;28;20386;-73
2021/06/08 05:13:10;;;;;;;9.95;6.05;;;;;;;14.00;66.62;101123.84;5106742;28;20050;-75
2021/06/08 05:15:38;;;;;;;9.63;5.65;;;;;;;14.04;66.83;101133.34;5105586;28;20024;-73
2021/06/08 05:18:07;;;;;;;11.80;5.00;;;;;;;14.05;66.45;101140.31;5105254;28;20043;-74
2021/06/08 05:20:38;;;;;;;10.98;4.90;;;;;;;14.07;66.04;101141.19;5106367;28;20024;-75
2021/06/08 05:23:04;;;;;;;10.27;5.60;;;;;;;14.17;65.91;101130.63;5106157;28;20020;-77
2021/06/08 05:25:29;;;;;;;10.95;5.38;;;;;;;14.21;65.86;101142.75;5106773;28;20043;-76
2021/06/08 05:27:55;;;;;;;8.52;5.43;;;;;;;14.22;65.63;101128.78;5106448;28;20028;-76
2021/06/08 05:30:21;;;;;;;13.90;5.38;;;;;;;14.23;65.28;101138.38;5106698;28;20016;-77
2021/06/08 05:32:46;;;;;;;8.75;5.03;;;;;;;14.16;65.61;101134.97;5105110;28;20035;-78
2021/06/08 05:35:13;;;;;;;10.02;5.80;;;;;;;14.19;65.83;101139.28;5106378;28;20050;-76
2021/06/08 05:37:41;;;;;;;7.18;4.88;;;;;;;14.23;65.70;101141.00;5106443;28;20028;-76
2021/06/08 05:40:07;;;;;;;8.10;5.10;;;;;;;14.25;65.57;101136.59;5105983;28;20020;-76
2021/06/08 05:42:32;;;;;;;6.95;4.97;;;;;;;14.17;64.97;101138.47;5105670;28;20035;-76
2021/06/08 05:44:58;;;;;;;9.00;5.28;;;;;;;14.05;65.29;101134.22;5106011;28;20020;-76
2021/06/08 05:47:23;;;;;;;9.07;5.78;;;;;;;14.09;65.70;101138.56;5106105;28;20194;-76
2021/06/08 05:49:49;;;;;;;10.32;5.93;;;;;;;14.08;65.71;101147.25;5104440;28;20035;-76
2021/06/08 05:52:15;;;;;;;10.52;5.05;;;;;;;14.11;65.85;101145.47;5105498;28;20089;-75
2021/06/08 05:54:40;;;;;;;10.88;5.50;;;;;;;14.11;65.90;101142.84;5105611;28;20039;-75
2021/06/08 05:57:09;;;;;;;9.60;4.95;;;;;;;14.09;65.65;101147.22;5105353;28;20020;-76
2021/06/08 05:59:37;;;;;;;8.27;5.28;;;;;;;13.95;64.74;101136.94;5105394;28;20070;-76
2021/06/08 06:02:04;;;;;;;7.90;5.82;;;;;;;13.96;65.32;101148.25;5103813;28;20393;-76
2021/06/08 06:04:30;;;;;;;10.70;5.32;;;;;;;13.98;65.35;101146.47;5105394;28;20020;-76
2021/06/08 06:06:56;;;;;;;8.02;5.40;;;;;;;13.91;65.50;101134.38;5105211;28;20024;-76
2021/06/08 06:09:23;;;;;;;10.85;5.72;;;;;;;13.90;65.78;101143.09;5104027;28;20050;-76
2021/06/08 06:11:51;;;;;;;11.00;5.63;;;;;;;13.91;65.65;101147.44;5105378;28;20197;-76
2021/06/08 06:14:24;;;;;;;7.88;5.70;;;;;;;13.95;65.64;101150.00;5105389;28;20043;-76
2021/06/08 06:16:53;;;;;;;8.90;5.70;;;;;;;14.03;65.64;101147.28;5103911;28;20541;-76
2021/06/08 06:19:22;;;;;;;7.25;5.80;;;;;;;14.03;65.03;101147.28;5103924;28;20040;-76
2021/06/08 06:21:49;;;;;;;7.45;5.63;;;;;;;13.98;65.20;101146.47;5103766;28;20028;-76
2021/06/08 06:24:15;;;;;;;9.40;5.53;;;;;;;14.00;65.34;101144.72;5104119;28;20515;-76
2021/06/08 06:26:43;;;;;;;9.10;5.55;;;;;;;14.04;65.28;101145.56;5105598;28;20038;-75
2021/06/08 06:29:09;;;;;;;11.38;4.90;;;;;;;14.14;65.04;101155.00;5104677;28;20027;-74
2021/06/08 06:31:36;;;;;;;11.95;6.05;;;;;;;14.09;64.96;101144.63;5105172;28;20459;-75
2021/06/08 06:34:02;;;;;;;9.38;6.10;;;;;;;14.06;64.77;101133.34;5105687;28;20024;-75
2021/06/08 06:36:30;;;;;;;8.50;5.80;;;;;;;14.15;64.93;101146.31;5104509;28;20115;-75
2021/06/08 06:39:03;;;;;;;12.00;5.60;;;;;;;14.11;64.59;101132.41;5103938;28;20077;-74
2021/06/08 06:41:30;;;;;;;11.95;6.22;;;;;;;14.07;64.56;101132.47;5106677;28;20024;-75
2021/06/08 06:43:57;;;;;;;10.10;5.97;;;;;;;14.12;64.61;101139.34;5114424;28;20008;-76
2021/06/08 06:46:23;;;;;;;12.95;5.68;;;;;;;14.17;64.69;101139.31;5105335;28;20019;-75
2021/06/08 06:48:53;;;;;;;8.63;5.72;;;;;;;14.23;64.69;101136.63;5105301;28;20040;-74
2021/06/08 06:51:19;;;;;;;8.30;4.75;;;;;;;14.42;64.62;101146.84;5104982;28;20024;-74
2021/06/08 06:53:47;;;;;;;10.20;5.38;;;;;;;14.58;63.55;101144.91;5103358;28;20024;-74
2021/06/08 06:56:13;;;;;;;9.38;4.82;;;;;;;14.57;63.20;101148.38;5104746;28;20028;-75
2021/06/08 06:58:41;;;;;;;7.47;4.88;;;;;;;14.68;63.11;101148.25;5104035;28;20111;-75
2021/06/08 07:01:07;;;;;;;10.95;5.22;;;;;;;14.73;63.16;101146.44;5102863;28;20150;-75
2021/06/08 07:03:36;;;;;;;9.93;5.15;;;;;;;14.84;62.81;101148.09;5104289;28;20032;-75
2021/06/08 07:06:03;;;;;;;11.65;5.65;;;;;;;14.87;63.02;101142.81;5104447;28;20024;-75
2021/06/08 07:08:31;;;;;;;8.60;5.22;;;;;;;15.04;62.76;101150.41;5103058;28;20028;-75
2021/06/08 07:10:57;;;;;;;11.57;5.97;;;;;;;15.08;62.04;101141.59;5104378;28;20103;-74
2021/06/08 07:13:24;;;;;;;9.05;4.78;;;;;;;15.13;61.77;101152.00;5104497;28;20020;-75
2021/06/08 07:15:54;;;;;;;9.98;5.80;;;;;;;15.21;61.73;101154.47;5104101;28;20165;-74
2021/06/08 07:18:20;;;;;;;8.45;4.97;;;;;;;15.27;61.57;101143.91;5102691;28;20040;-74
2021/06/08 07:20:46;;;;;;;6.57;4.40;;;;;;;15.42;60.75;101142.81;5103979;28;20026;-74
2021/06/08 07:23:28;;;;;;;12.88;5.68;;;;;;;15.57;60.25;101152.16;5069571;28;20417;-74
2021/06/08 07:25:54;;;;;;;10.40;5.05;;;;;;;15.64;60.07;101144.19;5104075;28;20024;-74
2021/06/08 07:28:20;;;;;;;8.73;5.15;;;;;;;15.68;59.26;101158.94;5103948;28;20019;-76
2021/06/08 07:30:46;;;;;;;5.93;4.15;;;;;;;15.55;59.31;101156.56;5104036;28;20020;-75
2021/06/08 07:33:15;;;;;;;7.32;4.95;;;;;;;15.54;59.65;101154.84;5103888;28;20024;-75
2021/06/08 07:36:05;;;;;;;5.75;4.30;;;;;;;15.63;59.13;101152.94;5103810;28;20069;-75
2021/06/08 07:38:57;;;;;;;8.35;4.72;;;;;;;15.64;58.67;101152.91;5103676;28;20047;-74
2021/06/08 07:41:43;;;;;;;6.88;4.72;;;;;;;15.70;58.33;101157.19;5103928;28;20051;-74
2021/06/08 07:44:16;;;;;;;5.55;3.90;;;;;;;15.78;58.10;101146.56;5103752;28;20396;-75
2021/06/08 07:46:43;;;;;;;7.53;4.70;;;;;;;15.83;57.75;101163.06;5103961;28;20028;-74
2021/06/08 07:49:11;;;;;;;7.65;3.70;;;;;;;15.84;57.85;101151.69;5104071;28;20571;-74
2021/06/08 07:51:40;;;;;;;7.47;5.05;;;;;;;15.90;58.00;101148.06;5102763;28;20084;-75
2021/06/08 07:54:06;;;;;;;5.63;4.07;;;;;;;16.01;57.68;101154.00;5102941;28;20055;-75
2021/06/08 07:56:33;;;;;;;7.20;4.63;;;;;;;16.16;56.98;101157.22;5104234;28;20093;-74
2021/06/08 07:58:58;;;;;;;9.00;4.60;;;;;;;16.21;56.17;101153.59;5103797;28;20028;-75
2021/06/08 08:01:26;;;;;;;6.38;4.13;;;;;;;16.28;55.76;101162.22;5104093;28;20020;-75
2021/06/08 08:03:52;;;;;;;6.50;4.63;;;;;;;16.29;55.33;101153.47;5103766;28;20023;-74
2021/06/08 08:06:19;;;;;;;8.63;4.88;;;;;;;16.27;55.65;101155.25;5103753;28;20032;-74
2021/06/08 08:08:47;;;;;;;8.18;5.00;;;;;;;16.41;55.53;101161.97;5103916;28;20024;-74
2021/06/08 08:11:15;;;;;;;6.85;4.75;;;;;;;16.45;55.03;101161.00;5103681;28;20021;-75
2021/06/08 08:13:44;;;;;;;5.75;4.50;;;;;;;16.32;55.45;101153.41;5103695;28;20056;-75
2021/06/08 08:16:11;;;;;;;6.30;4.70;;;;;;;16.38;55.82;101147.16;5102583;28;20024;-75
2021/06/08 08:18:38;;;;;;;5.55;3.90;;;;;;;16.55;55.70;101149.44;5102164;28;20067;-75
2021/06/08 08:21:08;;;;;;;5.70;4.10;;;;;;;16.64;55.18;101152.75;5102296;28;20047;-76
2021/06/08 08:23:34;;;;;;;8.13;4.15;;;;;;;16.52;54.35;101153.91;5103750;28;20058;-75
2021/06/08 08:26:04;;;;;;;9.02;4.55;;;;;;;16.49;54.51;101157.41;5103927;28;20024;-73
2021/06/08 08:28:29;;;;;;;7.90;4.53;;;;;;;16.59;54.23;101155.47;5103470;28;20043;-74
2021/06/08 08:31:01;;;;;;;7.00;4.30;;;;;;;16.67;54.18;101153.56;5103404;28;20588;-76
2021/06/08 08:33:29;;;;;;;6.65;3.97;;;;;;;16.77;54.35;101148.97;5103210;28;20020;-74
2021/06/08 08:35:55;;;;;;;10.65;4.43;;;;;;;16.89;54.35;101142.56;5103955;28;20039;-75
2021/06/08 08:38:21;;;;;;;6.55;4.45;;;;;;;17.13;54.19;101150.78;5103750;28;20084;-75
2021/06/08 08:40:47;;;;;;;9.05;4.55;;;;;;;17.21;54.01;101147.97;5103368;28;20040;-75
2021/06/08 08:43:13;;;;;;;7.22;4.78;;;;;;;17.18;53.62;101148.94;5103310;28;20093;-74
2021/06/08 08:45:38;;;;;;;6.97;4.35;;;;;;;17.06;53.29;101150.03;5103430;28;20024;-75
2021/06/08 08:48:05;;;;;;;7.75;4.68;;;;;;;16.90;53.99;101141.66;5103344;28;20028;-74
2021/06/08 08:50:30;;;;;;;8.60;4.93;;;;;;;16.87;54.38;101144.34;5103272;28;20016;-75
2021/06/08 08:53:02;;;;;;;7.47;4.82;;;;;;;16.85;54.88;101154.03;5103466;28;20042;-75
2021/06/08 08:55:31;;;;;;;6.22;4.80;;;;;;;16.90;54.38;101143.44;5103583;28;20105;-75
2021/06/08 08:57:59;;;;;;;8.60;4.57;;;;;;;16.76;54.19;101147.22;5103417;28;20034;-75
2021/06/08 09:00:27;;;;;;;9.20;5.13;;;;;;;16.68;54.26;101144.78;5107181;28;20028;-75
2021/06/08 09:02:57;;;;;;;7.25;4.38;;;;;;;16.58;54.96;101144.13;5105595;28;20031;-75
2021/06/08 09:05:23;;;;;;;6.47;4.30;;;;;;;16.54;55.35;101141.59;5105721;28;20053;-75
2021/06/08 09:07:50;;;;;;;9.88;5.07;;;;;;;16.53;55.53;101140.75;5105699;28;20050;-74
2021/06/08 09:10:16;;;;;;;8.57;4.88;;;;;;;16.61;55.34;101148.44;5105637;28;20042;-76
2021/06/08 09:12:42;;;;;;;12.48;5.00;;;;;;;16.72;55.51;101150.81;5106549;28;20023;-75
2021/06/08 09:15:08;;;;;;;9.05;5.05;;;;;;;16.87;55.31;101146.97;5107057;28;20024;-75
2021/06/08 09:17:35;;;;;;;8.18;4.88;;;;;;;16.95;54.63;101141.56;5106881;28;20032;-74
2021/06/08 09:20:03;;;;;;;10.30;5.53;;;;;;;16.95;54.53;101145.03;5106725;28;20044;-75
2021/06/08 09:22:54;;;;;;;6.38;4.68;;;;;;;17.00;54.64;101149.34;5106794;28;20020;-75
2021/06/08 09:25:38;;;;;;;8.60;5.68;;;;;;;16.92;54.90;101157.34;5106839;28;20020;-75
2021/06/08 09:28:28;;;;;;;9.63;5.30;;;;;;;16.88;54.99;101148.72;5106273;28;20020;-75
2021/06/08 09:30:55;;;;;;;9.68;5.43;;;;;;;16.77;54.94;101154.22;5106726;28;20048;-74
2021/06/08 09:33:24;;;;;;;9.32;5.00;;;;;;;16.72;55.62;101150.81;5106714;28;20027;-75
2021/06/08 09:36:01;;;;;;;8.43;5.10;;;;;;;16.71;55.50;101154.31;5106650;28;20084;-74
2021/06/08 09:38:34;;;;;;;8.50;5.40;;;;;;;16.60;55.16;101144.97;5106854;28;20035;-75
2021/06/08 09:41:44;;;;;;;7.18;4.93;;;;;;;16.66;55.37;101156.22;5106586;28;20040;-75
2021/06/08 09:44:14;;;;;;;6.28;4.68;;;;;;;16.82;54.97;101152.31;5105843;28;20016;-75
2021/06/08 09:46:59;;;;;;;8.05;4.82;;;;;;;17.04;54.49;101150.97;5106306;28;20024;-75
2021/06/08 09:49:30;;;;;;;7.72;5.13;;;;;;;17.17;53.96;101157.69;5106246;28;20065;-75
2021/06/08 09:51:58;;;;;;;7.45;4.80;;;;;;;17.16;53.91;101144.59;5106092;28;20027;-75
2021/06/08 09:54:27;;;;;;;10.70;5.20;;;;;;;17.27;53.92;101150.44;5104735;28;20028;-75
2021/06/08 09:57:14;;;;;;;8.98;5.07;;;;;;;17.47;53.66;101151.72;5105884;28;20224;-75
2021/06/08 09:59:51;;;;;;;7.70;5.05;;;;;;;17.78;54.00;101144.81;5104377;28;20066;-76
2021/06/08 10:05:25;;;;;;;7.90;4.90;;;;;;;18.01;52.90;101146.78;5105879;28;20028;-77
2021/06/08 10:07:58;;;;;;;9.35;5.57;;;;;;;18.17;53.05;101142.00;5105811;28;20016;-76
2021/06/08 10:10:25;;;;;;;12.65;5.43;;;;;;;18.25;52.02;101146.16;5103260;28;20028;-76
2021/06/08 10:13:07;;;;;;;9.10;5.40;;;;;;;18.22;51.63;101144.50;5105370;28;20087;-76
2021/06/08 10:15:34;;;;;;;;;;;;;;;18.27;52.27;101144.38;5106384;28;20096;-76
2021/06/08 10:18:08;;;;;;;10.93;5.88;;;;;;;18.40;51.11;101139.63;5103994;28;19908;-76
2021/06/08 10:20:36;;;;;;;6.85;5.05;;;;;;;18.36;51.84;101149.34;5105671;28;20024;-75
2021/06/08 10:23:17;;;;;;;10.05;6.38;;;;;;;18.42;51.24;101140.41;5105349;28;20024;-75
2021/06/08 10:25:43;;;;;;;9.32;5.93;;;;;;;18.45;51.55;101135.09;5105408;28;20016;-75
2021/06/08 10:28:11;;;;;;;8.77;5.70;;;;;;;18.69;50.73;101136.09;5105119;28;20035;-75
2021/06/08 10:30:38;;;;;;;8.70;5.90;;;;;;;18.92;50.46;101131.00;5105480;28;20079;-76
2021/06/08 10:33:04;;;;;;;8.40;5.47;;;;;;;19.08;49.73;101134.00;5105257;28;20024;-75
2021/06/08 10:35:29;;;;;;;8.10;4.82;;;;;;;19.38;49.86;101135.69;5105270;28;20031;-76
2021/06/08 10:37:55;;;;;;;8.48;5.30;;;;;;;20.31;48.44;101123.66;5105090;28;20016;-75
2021/06/08 10:40:21;;;;;;;7.45;5.35;;;;;;;20.65;47.10;101145.22;5105367;28;20032;-76
2021/06/08 10:42:46;;;;;;;14.02;5.18;;;;;;;20.67;46.26;101151.31;5104789;28;20073;-75
2021/06/08 10:45:12;;;;;;;9.90;6.00;;;;;;;20.74;46.18;101150.16;5103835;28;20034;-76
2021/06/08 10:50:24;;;;;;;13.05;5.50;;;;;;;21.15;45.52;101141.50;5105093;28;20082;-75
2021/06/08 10:52:50;;;;;;;7.93;5.38;;;;;;;21.09;45.25;101154.06;5103624;28;20087;-75
2021/06/08 10:55:18;;;;;;;10.27;5.47;;;;;;;20.78;45.60;101138.53;5104897;28;20024;-75
2021/06/08 10:57:46;;;;;;;7.57;5.15;;;;;;;20.61;45.78;101146.25;5102883;28;20027;-73
2021/06/08 11:00:23;;;;;;;13.98;5.78;;;;;;;20.65;46.60;101143.47;5086655;28;20380;-75
2021/06/08 11:02:49;;;;;;;10.90;6.43;;;;;;;20.73;45.79;101137.88;5104760;28;20031;-75
2021/06/08 11:05:16;;;;;;;10.88;5.50;;;;;;;20.73;46.16;101139.66;5104797;28;20024;-75
2021/06/08 11:07:49;;;;;;;11.18;5.53;;;;;;;20.77;45.71;101139.47;5104511;28;20077;-75
2021/06/08 11:10:27;;;;;;;12.52;5.97;;;;;;;20.64;45.56;101140.88;5103111;28;20032;-75
2021/06/08 11:13:16;;;;;;;11.70;5.65;;;;;;;20.47;46.16;101139.75;5104310;28;20028;-77
2021/06/08 11:15:47;;;;;;;10.60;5.90;;;;;;;20.36;46.49;101141.94;5103262;28;20240;-75
2021/06/08 11:18:22;;;;;;;9.80;5.72;;;;;;;20.22;47.05;101137.19;5102956;28;20036;-76
2021/06/08 11:21:08;;;;;;;10.40;6.18;;;;;;;20.22;47.20;101130.16;5103889;28;20028;-74
2021/06/08 11:23:45;;;;;;;8.25;5.32;;;;;;;20.13;47.53;101135.75;5088744;28;20031;-75
2021/06/08 11:26:18;;;;;;;20.40;5.75;;;;;;;20.14;47.23;101130.44;5104427;28;20020;-74
2021/06/08 11:28:44;;;;;;;12.15;6.03;;;;;;;20.09;47.50;101131.50;5102824;28;20030;-75
2021/06/08 11:31:10;;;;;;;10.55;5.95;;;;;;;20.05;47.66;101123.72;5104262;28;20079;-75
2021/06/08 11:33:47;;;;;;;11.60;5.20;;;;;;;19.98;47.17;101116.06;5102543;28;20486;-75